sensor_id;sensor_type;location;lat;lon;timestamp;temperature;humidity
71206;SHT31;58935;54.498;18.544;2024-03-25T00:01:19;5.64;77.01
71206;SHT31;58935;54.498;18.544;2024-03-25T00:03:44;5.63;77.05
71206;SHT31;58935;54.498;18.544;2024-03-25T00:06:09;5.62;77.10
71206;SHT31;58935;54.498;18.544;2024-03-25T00:08:35;5.61;77.10
71206;SHT31;58935;54.498;18.544;2024-03-25T00:11:04;5.61;77.16
71206;SHT31;58935;54.498;18.544;2024-03-25T00:13:29;5.61;77.20
71206;SHT31;58935;54.498;18.544;2024-03-25T00:15:54;5.61;77.20
71206;SHT31;58935;54.498;18.544;2024-03-25T00:18:22;5.62;77.22
71206;SHT31;58935;54.498;18.544;2024-03-25T00:20:47;5.61;77.24
71206;SHT31;58935;54.498;18.544;2024-03-25T00:23:15;5.62;77.27
71206;SHT31;58935;54.498;18.544;2024-03-25T00:25:41;5.63;77.29
71206;SHT31;58935;54.498;18.544;2024-03-25T00:28:06;5.63;77.32
71206;SHT31;58935;54.498;18.544;2024-03-25T00:30:34;5.63;77.34
71206;SHT31;58935;54.498;18.544;2024-03-25T00:32:59;5.64;77.40
71206;SHT31;58935;54.498;18.544;2024-03-25T00:35:25;5.65;77.40
71206;SHT31;58935;54.498;18.544;2024-03-25T00:37:50;5.65;77.42
71206;SHT31;58935;54.498;18.544;2024-03-25T00:40:16;5.65;77.48
71206;SHT31;58935;54.498;18.544;2024-03-25T00:42:42;5.66;77.50
71206;SHT31;58935;54.498;18.544;2024-03-25T00:45:07;5.65;77.49
71206;SHT31;58935;54.498;18.544;2024-03-25T00:47:33;5.66;77.58
71206;SHT31;58935;54.498;18.544;2024-03-25T00:49:59;5.67;77.60
71206;SHT31;58935;54.498;18.544;2024-03-25T00:52:27;5.68;77.51
71206;SHT31;58935;54.498;18.544;2024-03-25T00:54:52;5.69;77.55
71206;SHT31;58935;54.498;18.544;2024-03-25T00:57:18;5.68;77.51
71206;SHT31;58935;54.498;18.544;2024-03-25T00:59:43;5.69;77.59
71206;SHT31;58935;54.498;18.544;2024-03-25T01:02:09;5.69;77.51
71206;SHT31;58935;54.498;18.544;2024-03-25T01:04:34;5.69;77.52
71206;SHT31;58935;54.498;18.544;2024-03-25T01:07:00;5.69;77.55
71206;SHT31;58935;54.498;18.544;2024-03-25T01:09:25;5.70;77.60
71206;SHT31;58935;54.498;18.544;2024-03-25T01:11:51;5.71;77.62
71206;SHT31;58935;54.498;18.544;2024-03-25T01:14:16;5.69;77.60
71206;SHT31;58935;54.498;18.544;2024-03-25T01:16:42;5.70;77.62
71206;SHT31;58935;54.498;18.544;2024-03-25T01:19:08;5.70;77.61
71206;SHT31;58935;54.498;18.544;2024-03-25T01:21:33;5.69;77.64
71206;SHT31;58935;54.498;18.544;2024-03-25T01:23:59;5.70;77.70
71206;SHT31;58935;54.498;18.544;2024-03-25T01:26:26;5.70;77.70
71206;SHT31;58935;54.498;18.544;2024-03-25T01:28:52;5.71;77.71
71206;SHT31;58935;54.498;18.544;2024-03-25T01:31:17;5.71;77.70
71206;SHT31;58935;54.498;18.544;2024-03-25T01:33:44;5.71;77.73
71206;SHT31;58935;54.498;18.544;2024-03-25T01:36:10;5.70;77.81
71206;SHT31;58935;54.498;18.544;2024-03-25T01:38:41;5.71;77.89
71206;SHT31;58935;54.498;18.544;2024-03-25T01:41:10;5.72;77.81
71206;SHT31;58935;54.498;18.544;2024-03-25T01:43:37;5.73;77.81
71206;SHT31;58935;54.498;18.544;2024-03-25T01:46:05;5.74;77.81
71206;SHT31;58935;54.498;18.544;2024-03-25T01:48:31;5.75;77.80
71206;SHT31;58935;54.498;18.544;2024-03-25T01:50:59;5.76;77.81
71206;SHT31;58935;54.498;18.544;2024-03-25T01:53:27;5.76;77.80
71206;SHT31;58935;54.498;18.544;2024-03-25T01:55:54;5.76;77.71
71206;SHT31;58935;54.498;18.544;2024-03-25T01:58:22;5.76;77.75
71206;SHT31;58935;54.498;18.544;2024-03-25T02:00:50;5.75;77.80
71206;SHT31;58935;54.498;18.544;2024-03-25T02:03:19;5.76;77.81
71206;SHT31;58935;54.498;18.544;2024-03-25T02:05:45;5.76;77.80
71206;SHT31;58935;54.498;18.544;2024-03-25T02:08:11;5.76;77.81
71206;SHT31;58935;54.498;18.544;2024-03-25T02:10:39;5.77;77.85
71206;SHT31;58935;54.498;18.544;2024-03-25T02:13:06;5.78;77.83
71206;SHT31;58935;54.498;18.544;2024-03-25T02:15:32;5.80;77.80
71206;SHT31;58935;54.498;18.544;2024-03-25T02:17:58;5.81;77.77
71206;SHT31;58935;54.498;18.544;2024-03-25T02:20:23;5.82;77.82
71206;SHT31;58935;54.498;18.544;2024-03-25T02:22:49;5.84;77.77
71206;SHT31;58935;54.498;18.544;2024-03-25T02:25:14;5.83;77.69
71206;SHT31;58935;54.498;18.544;2024-03-25T02:27:42;5.83;77.63
71206;SHT31;58935;54.498;18.544;2024-03-25T02:30:10;5.82;77.70
71206;SHT31;58935;54.498;18.544;2024-03-25T02:32:39;5.82;77.78
71206;SHT31;58935;54.498;18.544;2024-03-25T02:35:07;5.81;77.72
71206;SHT31;58935;54.498;18.544;2024-03-25T02:37:39;5.81;77.75
71206;SHT31;58935;54.498;18.544;2024-03-25T02:40:09;5.80;77.77
71206;SHT31;58935;54.498;18.544;2024-03-25T02:42:37;5.80;77.79
71206;SHT31;58935;54.498;18.544;2024-03-25T02:45:06;5.79;77.79
71206;SHT31;58935;54.498;18.544;2024-03-25T02:47:32;5.79;77.80
71206;SHT31;58935;54.498;18.544;2024-03-25T02:49:57;5.79;77.88
71206;SHT31;58935;54.498;18.544;2024-03-25T02:52:25;5.78;77.79
71206;SHT31;58935;54.498;18.544;2024-03-25T02:54:51;5.78;77.86
71206;SHT31;58935;54.498;18.544;2024-03-25T02:57:16;5.77;77.82
71206;SHT31;58935;54.498;18.544;2024-03-25T02:59:41;5.77;77.86
71206;SHT31;58935;54.498;18.544;2024-03-25T03:02:07;5.75;77.88
71206;SHT31;58935;54.498;18.544;2024-03-25T03:04:32;5.74;77.82
71206;SHT31;58935;54.498;18.544;2024-03-25T03:06:58;5.71;77.88
71206;SHT31;58935;54.498;18.544;2024-03-25T03:09:23;5.70;77.91
71206;SHT31;58935;54.498;18.544;2024-03-25T03:11:49;5.68;77.93
71206;SHT31;58935;54.498;18.544;2024-03-25T03:14:14;5.65;77.94
71206;SHT31;58935;54.498;18.544;2024-03-25T03:16:42;5.64;78.06
71206;SHT31;58935;54.498;18.544;2024-03-25T03:19:08;5.63;78.08
71206;SHT31;58935;54.498;18.544;2024-03-25T03:21:33;5.63;78.07
71206;SHT31;58935;54.498;18.544;2024-03-25T03:23:58;5.62;78.04
71206;SHT31;58935;54.498;18.544;2024-03-25T03:26:24;5.61;78.14
71206;SHT31;58935;54.498;18.544;2024-03-25T03:28:52;5.59;78.14
71206;SHT31;58935;54.498;18.544;2024-03-25T03:31:19;5.59;78.16
71206;SHT31;58935;54.498;18.544;2024-03-25T03:33:46;5.57;78.15
71206;SHT31;58935;54.498;18.544;2024-03-25T03:36:15;5.56;78.33
71206;SHT31;58935;54.498;18.544;2024-03-25T03:38:42;5.57;78.43
71206;SHT31;58935;54.498;18.544;2024-03-25T03:41:07;5.60;78.46
71206;SHT31;58935;54.498;18.544;2024-03-25T03:43:33;5.59;78.43
71206;SHT31;58935;54.498;18.544;2024-03-25T03:45:58;5.60;78.44
71206;SHT31;58935;54.498;18.544;2024-03-25T03:48:23;5.63;78.51
71206;SHT31;58935;54.498;18.544;2024-03-25T03:50:51;5.63;78.41
71206;SHT31;58935;54.498;18.544;2024-03-25T03:53:16;5.63;78.40
71206;SHT31;58935;54.498;18.544;2024-03-25T03:55:42;5.64;78.42
71206;SHT31;58935;54.498;18.544;2024-03-25T03:58:17;5.64;78.49
71206;SHT31;58935;54.498;18.544;2024-03-25T04:00:42;5.66;78.45
71206;SHT31;58935;54.498;18.544;2024-03-25T04:03:08;5.66;78.39
71206;SHT31;58935;54.498;18.544;2024-03-25T04:05:34;5.65;78.41
71206;SHT31;58935;54.498;18.544;2024-03-25T04:07:59;5.65;78.45
71206;SHT31;58935;54.498;18.544;2024-03-25T04:10:26;5.65;78.46
71206;SHT31;58935;54.498;18.544;2024-03-25T04:12:52;5.65;78.51
71206;SHT31;58935;54.498;18.544;2024-03-25T04:15:17;5.67;78.50
71206;SHT31;58935;54.498;18.544;2024-03-25T04:17:44;5.67;78.50
71206;SHT31;58935;54.498;18.544;2024-03-25T04:20:12;5.68;78.54
71206;SHT31;58935;54.498;18.544;2024-03-25T04:25:09;5.68;78.39
71206;SHT31;58935;54.498;18.544;2024-03-25T04:27:38;5.67;78.38
71206;SHT31;58935;54.498;18.544;2024-03-25T04:30:04;5.66;78.51
71206;SHT31;58935;54.498;18.544;2024-03-25T04:32:33;5.65;78.55
71206;SHT31;58935;54.498;18.544;2024-03-25T04:34:59;5.65;78.71
71206;SHT31;58935;54.498;18.544;2024-03-25T04:37:26;5.67;78.80
71206;SHT31;58935;54.498;18.544;2024-03-25T04:39:53;5.68;78.80
71206;SHT31;58935;54.498;18.544;2024-03-25T04:42:19;5.70;78.77
71206;SHT31;58935;54.498;18.544;2024-03-25T04:44:46;5.71;78.70
71206;SHT31;58935;54.498;18.544;2024-03-25T04:47:11;5.71;78.68
71206;SHT31;58935;54.498;18.544;2024-03-25T04:49:37;5.72;78.70
71206;SHT31;58935;54.498;18.544;2024-03-25T04:52:03;5.73;78.61
71206;SHT31;58935;54.498;18.544;2024-03-25T04:54:29;5.73;78.68
71206;SHT31;58935;54.498;18.544;2024-03-25T04:56:55;5.73;78.62
71206;SHT31;58935;54.498;18.544;2024-03-25T04:59:21;5.72;78.59
71206;SHT31;58935;54.498;18.544;2024-03-25T05:01:46;5.72;78.61
71206;SHT31;58935;54.498;18.544;2024-03-25T05:04:12;5.72;78.63
71206;SHT31;58935;54.498;18.544;2024-03-25T05:06:37;5.73;78.62
71206;SHT31;58935;54.498;18.544;2024-03-25T05:09:03;5.72;78.62
71206;SHT31;58935;54.498;18.544;2024-03-25T05:11:28;5.71;78.60
71206;SHT31;58935;54.498;18.544;2024-03-25T05:13:53;5.73;78.67
71206;SHT31;58935;54.498;18.544;2024-03-25T05:16:18;5.72;78.70
71206;SHT31;58935;54.498;18.544;2024-03-25T05:18:44;5.74;78.70
71206;SHT31;58935;54.498;18.544;2024-03-25T05:21:09;5.74;78.70
71206;SHT31;58935;54.498;18.544;2024-03-25T05:23:35;5.76;78.76
71206;SHT31;58935;54.498;18.544;2024-03-25T05:26:00;5.78;78.80
71206;SHT31;58935;54.498;18.544;2024-03-25T05:28:26;5.81;78.74
71206;SHT31;58935;54.498;18.544;2024-03-25T05:30:51;5.83;78.69
71206;SHT31;58935;54.498;18.544;2024-03-25T05:33:16;5.84;78.75
71206;SHT31;58935;54.498;18.544;2024-03-25T05:35:42;5.89;78.83
71206;SHT31;58935;54.498;18.544;2024-03-25T05:38:07;5.92;78.73
71206;SHT31;58935;54.498;18.544;2024-03-25T05:40:32;5.95;78.73
71206;SHT31;58935;54.498;18.544;2024-03-25T05:42:58;5.99;78.70
71206;SHT31;58935;54.498;18.544;2024-03-25T05:45:23;6.02;78.67
71206;SHT31;58935;54.498;18.544;2024-03-25T05:47:50;6.04;78.61
71206;SHT31;58935;54.498;18.544;2024-03-25T05:50:15;6.08;78.58
71206;SHT31;58935;54.498;18.544;2024-03-25T05:52:42;6.11;78.46
71206;SHT31;58935;54.498;18.544;2024-03-25T05:55:07;6.13;78.50
71206;SHT31;58935;54.498;18.544;2024-03-25T05:57:35;6.14;78.31
71206;SHT31;58935;54.498;18.544;2024-03-25T06:00:03;6.13;78.29
71206;SHT31;58935;54.498;18.544;2024-03-25T06:02:32;6.13;78.38
71206;SHT31;58935;54.498;18.544;2024-03-25T06:05:00;6.15;78.51
71206;SHT31;58935;54.498;18.544;2024-03-25T06:07:25;6.19;78.50
71206;SHT31;58935;54.498;18.544;2024-03-25T06:09:51;6.21;78.39
71206;SHT31;58935;54.498;18.544;2024-03-25T06:12:16;6.25;78.40
71206;SHT31;58935;54.498;18.544;2024-03-25T06:14:41;6.28;78.33
71206;SHT31;58935;54.498;18.544;2024-03-25T06:17:11;6.31;78.23
71206;SHT31;58935;54.498;18.544;2024-03-25T06:19:36;6.34;78.24
71206;SHT31;58935;54.498;18.544;2024-03-25T06:22:01;6.39;78.28
71206;SHT31;58935;54.498;18.544;2024-03-25T06:24:27;6.43;78.20
71206;SHT31;58935;54.498;18.544;2024-03-25T06:26:52;6.47;78.12
71206;SHT31;58935;54.498;18.544;2024-03-25T06:29:18;6.52;78.03
71206;SHT31;58935;54.498;18.544;2024-03-25T06:31:45;6.57;78.00
71206;SHT31;58935;54.498;18.544;2024-03-25T06:34:13;6.62;77.98
71206;SHT31;58935;54.498;18.544;2024-03-25T06:36:39;6.66;77.80
71206;SHT31;58935;54.498;18.544;2024-03-25T06:39:05;6.67;77.45
71206;SHT31;58935;54.498;18.544;2024-03-25T06:41:31;6.69;77.47
71206;SHT31;58935;54.498;18.544;2024-03-25T06:43:56;6.74;77.58
71206;SHT31;58935;54.498;18.544;2024-03-25T06:46:22;6.82;77.42
71206;SHT31;58935;54.498;18.544;2024-03-25T06:48:50;6.88;77.27
71206;SHT31;58935;54.498;18.544;2024-03-25T06:51:18;6.97;77.36
71206;SHT31;58935;54.498;18.544;2024-03-25T06:53:44;7.08;77.25
71206;SHT31;58935;54.498;18.544;2024-03-25T06:56:12;7.17;77.07
71206;SHT31;58935;54.498;18.544;2024-03-25T06:58:37;7.25;76.76
71206;SHT31;58935;54.498;18.544;2024-03-25T07:01:06;7.33;76.45
71206;SHT31;58935;54.498;18.544;2024-03-25T07:03:33;7.42;76.35
71206;SHT31;58935;54.498;18.544;2024-03-25T07:06:02;7.52;76.13
71206;SHT31;58935;54.498;18.544;2024-03-25T07:08:28;7.63;75.92
71206;SHT31;58935;54.498;18.544;2024-03-25T07:10:55;7.72;75.57
71206;SHT31;58935;54.498;18.544;2024-03-25T07:13:24;7.81;75.23
71206;SHT31;58935;54.498;18.544;2024-03-25T07:15:50;7.88;75.04
71206;SHT31;58935;54.498;18.544;2024-03-25T07:18:15;7.96;74.75
71206;SHT31;58935;54.498;18.544;2024-03-25T07:20:42;8.02;74.61
71206;SHT31;58935;54.498;18.544;2024-03-25T07:23:08;8.08;74.47
71206;SHT31;58935;54.498;18.544;2024-03-25T07:25:35;8.17;74.24
71206;SHT31;58935;54.498;18.544;2024-03-25T07:28:01;8.25;74.04
71206;SHT31;58935;54.498;18.544;2024-03-25T07:30:28;8.31;73.80
71206;SHT31;58935;54.498;18.544;2024-03-25T07:32:55;8.38;73.48
71206;SHT31;58935;54.498;18.544;2024-03-25T07:35:22;8.44;73.25
71206;SHT31;58935;54.498;18.544;2024-03-25T07:37:48;8.50;73.08
71206;SHT31;58935;54.498;18.544;2024-03-25T07:40:16;8.57;73.00
71206;SHT31;58935;54.498;18.544;2024-03-25T07:42:44;8.65;72.82
71206;SHT31;58935;54.498;18.544;2024-03-25T07:45:10;8.74;72.66
71206;SHT31;58935;54.498;18.544;2024-03-25T07:47:36;8.79;72.13
71206;SHT31;58935;54.498;18.544;2024-03-25T07:50:02;8.87;71.99
71206;SHT31;58935;54.498;18.544;2024-03-25T07:52:28;8.94;71.72
71206;SHT31;58935;54.498;18.544;2024-03-25T07:54:54;9.01;71.45
71206;SHT31;58935;54.498;18.544;2024-03-25T07:57:20;9.06;71.07
71206;SHT31;58935;54.498;18.544;2024-03-25T07:59:46;9.12;70.62
71206;SHT31;58935;54.498;18.544;2024-03-25T08:02:14;9.16;70.29
71206;SHT31;58935;54.498;18.544;2024-03-25T08:04:40;9.20;70.06
71206;SHT31;58935;54.498;18.544;2024-03-25T08:07:05;9.25;69.46
71206;SHT31;58935;54.498;18.544;2024-03-25T08:09:31;9.29;69.34
71206;SHT31;58935;54.498;18.544;2024-03-25T08:11:57;9.35;69.08
71206;SHT31;58935;54.498;18.544;2024-03-25T08:14:22;9.40;68.76
71206;SHT31;58935;54.498;18.544;2024-03-25T08:16:48;9.45;69.24
71206;SHT31;58935;54.498;18.544;2024-03-25T08:19:13;9.50;69.89
71206;SHT31;58935;54.498;18.544;2024-03-25T08:21:39;9.55;70.05
71206;SHT31;58935;54.498;18.544;2024-03-25T08:24:05;9.57;69.99
71206;SHT31;58935;54.498;18.544;2024-03-25T08:26:33;9.57;69.77
71206;SHT31;58935;54.498;18.544;2024-03-25T08:28:58;9.55;69.28
71206;SHT31;58935;54.498;18.544;2024-03-25T08:31:24;9.54;69.37
71206;SHT31;58935;54.498;18.544;2024-03-25T08:33:50;9.57;69.45
71206;SHT31;58935;54.498;18.544;2024-03-25T08:36:15;9.65;69.38
71206;SHT31;58935;54.498;18.544;2024-03-25T08:38:44;9.66;69.03
71206;SHT31;58935;54.498;18.544;2024-03-25T08:41:09;9.64;69.01
71206;SHT31;58935;54.498;18.544;2024-03-25T08:43:35;9.59;69.24
71206;SHT31;58935;54.498;18.544;2024-03-25T08:46:00;9.56;69.47
71206;SHT31;58935;54.498;18.544;2024-03-25T08:48:29;9.55;69.68
71206;SHT31;58935;54.498;18.544;2024-03-25T08:50:55;9.55;69.71
71206;SHT31;58935;54.498;18.544;2024-03-25T08:53:20;9.57;69.69
71206;SHT31;58935;54.498;18.544;2024-03-25T08:55:47;9.63;69.66
71206;SHT31;58935;54.498;18.544;2024-03-25T08:58:14;9.68;69.75
71206;SHT31;58935;54.498;18.544;2024-03-25T09:00:40;9.75;69.13
71206;SHT31;58935;54.498;18.544;2024-03-25T09:03:07;9.80;68.70
71206;SHT31;58935;54.498;18.544;2024-03-25T09:05:33;9.84;68.53
71206;SHT31;58935;54.498;18.544;2024-03-25T09:08:00;9.88;68.57
71206;SHT31;58935;54.498;18.544;2024-03-25T09:10:28;9.89;68.14
71206;SHT31;58935;54.498;18.544;2024-03-25T09:12:57;9.90;68.21
71206;SHT31;58935;54.498;18.544;2024-03-25T09:15:24;9.89;67.79
71206;SHT31;58935;54.498;18.544;2024-03-25T09:17:49;9.88;67.61
71206;SHT31;58935;54.498;18.544;2024-03-25T09:20:15;9.81;67.66
71206;SHT31;58935;54.498;18.544;2024-03-25T09:22:43;9.76;67.73
71206;SHT31;58935;54.498;18.544;2024-03-25T09:25:09;9.72;67.66
71206;SHT31;58935;54.498;18.544;2024-03-25T09:27:35;9.64;67.03
71206;SHT31;58935;54.498;18.544;2024-03-25T09:30:00;9.60;66.90
71206;SHT31;58935;54.498;18.544;2024-03-25T09:32:26;9.58;66.82
71206;SHT31;58935;54.498;18.544;2024-03-25T09:34:54;9.50;65.98
71206;SHT31;58935;54.498;18.544;2024-03-25T09:37:22;9.39;66.01
71206;SHT31;58935;54.498;18.544;2024-03-25T09:39:48;9.31;66.49
71206;SHT31;58935;54.498;18.544;2024-03-25T09:42:15;9.24;66.82
71206;SHT31;58935;54.498;18.544;2024-03-25T09:44:51;9.21;67.49
71206;SHT31;58935;54.498;18.544;2024-03-25T09:47:17;9.20;67.05
71206;SHT31;58935;54.498;18.544;2024-03-25T09:49:42;9.15;66.60
71206;SHT31;58935;54.498;18.544;2024-03-25T09:52:10;9.10;66.77
71206;SHT31;58935;54.498;18.544;2024-03-25T09:54:36;9.11;67.52
71206;SHT31;58935;54.498;18.544;2024-03-25T09:57:01;9.23;68.05
71206;SHT31;58935;54.498;18.544;2024-03-25T09:59:29;9.37;67.93
71206;SHT31;58935;54.498;18.544;2024-03-25T10:01:55;9.51;67.48
71206;SHT31;58935;54.498;18.544;2024-03-25T10:04:25;9.62;67.16
71206;SHT31;58935;54.498;18.544;2024-03-25T10:06:51;9.73;67.06
71206;SHT31;58935;54.498;18.544;2024-03-25T10:09:19;9.81;66.64
71206;SHT31;58935;54.498;18.544;2024-03-25T10:11:47;9.87;66.34
71206;SHT31;58935;54.498;18.544;2024-03-25T10:14:17;9.90;66.34
71206;SHT31;58935;54.498;18.544;2024-03-25T10:16:45;9.97;66.02
71206;SHT31;58935;54.498;18.544;2024-03-25T10:19:10;9.98;65.22
71206;SHT31;58935;54.498;18.544;2024-03-25T10:21:35;10.02;65.37
71206;SHT31;58935;54.498;18.544;2024-03-25T10:24:04;10.07;65.18
71206;SHT31;58935;54.498;18.544;2024-03-25T10:26:32;10.00;63.79
71206;SHT31;58935;54.498;18.544;2024-03-25T10:31:27;9.71;64.59
71206;SHT31;58935;54.498;18.544;2024-03-25T10:33:53;9.70;65.38
71206;SHT31;58935;54.498;18.544;2024-03-25T10:36:19;9.71;65.21
71206;SHT31;58935;54.498;18.544;2024-03-25T10:38:46;9.68;65.41
71206;SHT31;58935;54.498;18.544;2024-03-25T10:41:16;9.69;65.99
71206;SHT31;58935;54.498;18.544;2024-03-25T10:43:46;9.71;65.74
71206;SHT31;58935;54.498;18.544;2024-03-25T10:46:14;9.72;65.20
71206;SHT31;58935;54.498;18.544;2024-03-25T10:48:51;9.66;65.48
71206;SHT31;58935;54.498;18.544;2024-03-25T10:51:24;9.59;65.34
71206;SHT31;58935;54.498;18.544;2024-03-25T10:53:53;9.57;65.65
71206;SHT31;58935;54.498;18.544;2024-03-25T10:56:22;9.61;65.93
71206;SHT31;58935;54.498;18.544;2024-03-25T10:58:48;9.63;65.13
71206;SHT31;58935;54.498;18.544;2024-03-25T11:01:17;9.53;65.26
71206;SHT31;58935;54.498;18.544;2024-03-25T11:03:50;9.40;65.59
71206;SHT31;58935;54.498;18.544;2024-03-25T11:06:17;9.33;66.04
71206;SHT31;58935;54.498;18.544;2024-03-25T11:11:32;9.28;66.62
71206;SHT31;58935;54.498;18.544;2024-03-25T11:14:03;9.31;66.52
71206;SHT31;58935;54.498;18.544;2024-03-25T11:16:29;9.34;66.53
71206;SHT31;58935;54.498;18.544;2024-03-25T11:21:28;9.34;66.49
71206;SHT31;58935;54.498;18.544;2024-03-25T11:23:53;9.34;66.62
71206;SHT31;58935;54.498;18.544;2024-03-25T11:26:21;9.36;66.74
71206;SHT31;58935;54.498;18.544;2024-03-25T11:28:49;9.36;66.63
71206;SHT31;58935;54.498;18.544;2024-03-25T11:31:18;9.39;66.68
71206;SHT31;58935;54.498;18.544;2024-03-25T11:33:46;9.46;66.74
71206;SHT31;58935;54.498;18.544;2024-03-25T11:36:12;9.50;66.65
71206;SHT31;58935;54.498;18.544;2024-03-25T11:38:38;9.48;65.89
71206;SHT31;58935;54.498;18.544;2024-03-25T11:41:07;9.38;65.96
71206;SHT31;58935;54.498;18.544;2024-03-25T11:43:32;9.23;65.87
71206;SHT31;58935;54.498;18.544;2024-03-25T11:46:01;9.06;66.36
71206;SHT31;58935;54.498;18.544;2024-03-25T11:48:28;8.97;66.92
71206;SHT31;58935;54.498;18.544;2024-03-25T11:50:57;8.97;67.32
71206;SHT31;58935;54.498;18.544;2024-03-25T11:53:23;9.05;67.44
71206;SHT31;58935;54.498;18.544;2024-03-25T11:55:50;9.09;66.93
71206;SHT31;58935;54.498;18.544;2024-03-25T11:58:19;9.04;66.78
71206;SHT31;58935;54.498;18.544;2024-03-25T12:00:46;8.95;66.89
71206;SHT31;58935;54.498;18.544;2024-03-25T12:03:18;8.92;67.15
71206;SHT31;58935;54.498;18.544;2024-03-25T12:05:44;8.92;67.21
71206;SHT31;58935;54.498;18.544;2024-03-25T12:08:10;8.90;67.28
71206;SHT31;58935;54.498;18.544;2024-03-25T12:10:37;8.93;67.54
71206;SHT31;58935;54.498;18.544;2024-03-25T12:13:07;8.98;67.54
71206;SHT31;58935;54.498;18.544;2024-03-25T12:15:33;9.02;67.38
71206;SHT31;58935;54.498;18.544;2024-03-25T12:17:58;9.02;67.26
71206;SHT31;58935;54.498;18.544;2024-03-25T12:20:24;8.99;67.47
71206;SHT31;58935;54.498;18.544;2024-03-25T12:22:50;8.94;67.32
71206;SHT31;58935;54.498;18.544;2024-03-25T12:25:15;8.87;67.62
71206;SHT31;58935;54.498;18.544;2024-03-25T12:27:45;8.83;67.71
71206;SHT31;58935;54.498;18.544;2024-03-25T12:30:11;8.75;67.58
71206;SHT31;58935;54.498;18.544;2024-03-25T12:32:41;8.71;68.08
71206;SHT31;58935;54.498;18.544;2024-03-25T12:35:09;8.71;68.48
71206;SHT31;58935;54.498;18.544;2024-03-25T12:37:37;8.70;68.92
71206;SHT31;58935;54.498;18.544;2024-03-25T12:40:06;8.65;69.36
71206;SHT31;58935;54.498;18.544;2024-03-25T12:42:35;8.59;69.52
71206;SHT31;58935;54.498;18.544;2024-03-25T12:47:35;8.46;69.56
71206;SHT31;58935;54.498;18.544;2024-03-25T12:50:01;8.38;69.92
71206;SHT31;58935;54.498;18.544;2024-03-25T12:52:26;8.29;70.16
71206;SHT31;58935;54.498;18.544;2024-03-25T12:54:51;8.22;70.63
71206;SHT31;58935;54.498;18.544;2024-03-25T12:57:17;8.16;70.90
71206;SHT31;58935;54.498;18.544;2024-03-25T12:59:43;8.12;71.52
71206;SHT31;58935;54.498;18.544;2024-03-25T13:02:10;8.11;71.91
71206;SHT31;58935;54.498;18.544;2024-03-25T13:04:41;8.14;72.11
71206;SHT31;58935;54.498;18.544;2024-03-25T13:07:09;8.15;72.01
71206;SHT31;58935;54.498;18.544;2024-03-25T13:09:35;8.14;72.26
71206;SHT31;58935;54.498;18.544;2024-03-25T13:12:01;8.13;72.50
71206;SHT31;58935;54.498;18.544;2024-03-25T13:14:29;8.06;72.64
71206;SHT31;58935;54.498;18.544;2024-03-25T13:16:57;7.95;73.00
71206;SHT31;58935;54.498;18.544;2024-03-25T13:19:22;7.81;73.51
71206;SHT31;58935;54.498;18.544;2024-03-25T13:21:47;7.70;73.35
71206;SHT31;58935;54.498;18.544;2024-03-25T13:24:13;7.65;73.69
71206;SHT31;58935;54.498;18.544;2024-03-25T13:26:39;7.66;73.77
71206;SHT31;58935;54.498;18.544;2024-03-25T13:29:04;7.65;73.23
71206;SHT31;58935;54.498;18.544;2024-03-25T13:31:30;7.54;72.88
71206;SHT31;58935;54.498;18.544;2024-03-25T13:33:55;7.43;72.80
71206;SHT31;58935;54.498;18.544;2024-03-25T13:36:21;7.31;73.02
71206;SHT31;58935;54.498;18.544;2024-03-25T13:38:46;7.20;73.02
71206;SHT31;58935;54.498;18.544;2024-03-25T13:41:11;7.00;73.15
71206;SHT31;58935;54.498;18.544;2024-03-25T13:43:41;6.76;73.93
71206;SHT31;58935;54.498;18.544;2024-03-25T13:46:08;6.57;74.80
71206;SHT31;58935;54.498;18.544;2024-03-25T13:48:34;6.42;75.46
71206;SHT31;58935;54.498;18.544;2024-03-25T13:50:59;6.28;75.99
71206;SHT31;58935;54.498;18.544;2024-03-25T13:53:24;6.14;76.82
71206;SHT31;58935;54.498;18.544;2024-03-25T13:55:50;6.03;77.40
71206;SHT31;58935;54.498;18.544;2024-03-25T13:58:15;5.96;77.70
71206;SHT31;58935;54.498;18.544;2024-03-25T14:00:41;5.87;77.96
71206;SHT31;58935;54.498;18.544;2024-03-25T14:03:06;5.82;78.74
71206;SHT31;58935;54.498;18.544;2024-03-25T14:05:32;5.80;79.16
71206;SHT31;58935;54.498;18.544;2024-03-25T14:07:57;5.80;79.55
71206;SHT31;58935;54.498;18.544;2024-03-25T14:10:23;5.77;79.80
71206;SHT31;58935;54.498;18.544;2024-03-25T14:12:48;5.77;80.03
71206;SHT31;58935;54.498;18.544;2024-03-25T14:15:14;5.76;79.99
71206;SHT31;58935;54.498;18.544;2024-03-25T14:17:39;5.73;80.19
71206;SHT31;58935;54.498;18.544;2024-03-25T14:20:04;5.72;80.51
71206;SHT31;58935;54.498;18.544;2024-03-25T14:22:31;5.72;80.61
71206;SHT31;58935;54.498;18.544;2024-03-25T14:24:58;5.74;80.78
71206;SHT31;58935;54.498;18.544;2024-03-25T14:27:28;5.78;80.78
71206;SHT31;58935;54.498;18.544;2024-03-25T14:29:53;5.82;80.70
71206;SHT31;58935;54.498;18.544;2024-03-25T14:32:19;5.85;80.50
71206;SHT31;58935;54.498;18.544;2024-03-25T14:34:48;5.85;80.29
71206;SHT31;58935;54.498;18.544;2024-03-25T14:37:14;5.89;80.28
71206;SHT31;58935;54.498;18.544;2024-03-25T14:39:40;5.94;80.36
71206;SHT31;58935;54.498;18.544;2024-03-25T14:42:08;6.01;80.37
71206;SHT31;58935;54.498;18.544;2024-03-25T14:44:35;6.07;80.37
71206;SHT31;58935;54.498;18.544;2024-03-25T14:47:03;6.11;80.42
71206;SHT31;58935;54.498;18.544;2024-03-25T14:49:29;6.12;80.10
71206;SHT31;58935;54.498;18.544;2024-03-25T14:51:56;6.10;79.92
71206;SHT31;58935;54.498;18.544;2024-03-25T14:54:21;6.10;79.88
71206;SHT31;58935;54.498;18.544;2024-03-25T14:56:47;6.11;79.90
71206;SHT31;58935;54.498;18.544;2024-03-25T14:59:13;6.16;79.96
71206;SHT31;58935;54.498;18.544;2024-03-25T15:01:39;6.19;79.92
71206;SHT31;58935;54.498;18.544;2024-03-25T15:04:05;6.23;80.03
71206;SHT31;58935;54.498;18.544;2024-03-25T15:06:31;6.28;80.07
71206;SHT31;58935;54.498;18.544;2024-03-25T15:08:59;6.35;80.09
71206;SHT31;58935;54.498;18.544;2024-03-25T15:11:25;6.40;80.00
71206;SHT31;58935;54.498;18.544;2024-03-25T15:13:51;6.45;79.99
71206;SHT31;58935;54.498;18.544;2024-03-25T15:16:17;6.47;79.71
71206;SHT31;58935;54.498;18.544;2024-03-25T15:18:43;6.48;79.53
71206;SHT31;58935;54.498;18.544;2024-03-25T15:21:11;6.48;79.31
71206;SHT31;58935;54.498;18.544;2024-03-25T15:23:37;6.49;79.23
71206;SHT31;58935;54.498;18.544;2024-03-25T15:26:03;6.55;79.42
71206;SHT31;58935;54.498;18.544;2024-03-25T15:28:31;6.64;79.35
71206;SHT31;58935;54.498;18.544;2024-03-25T15:30:58;6.72;79.30
71206;SHT31;58935;54.498;18.544;2024-03-25T15:33:26;6.75;79.14
71206;SHT31;58935;54.498;18.544;2024-03-25T15:35:51;6.80;79.21
71206;SHT31;58935;54.498;18.544;2024-03-25T15:38:17;6.86;79.22